Time;durP1;ratioP1;P1;durP2;ratioP2;P2;SDS_P1;SDS_P2;PMS_P1;PMS_P2;Temp;Humidity;BMP_temperature;BMP_pressure;BME280_temperature;BME280_humidity;BME280_pressure;Samples;Min_cycle;Max_cycle;Signal;HPM_P1;HPM_P2
2023/03/13 00:00:35;;;;;;;35.13;5.93;;;;;;;;;;5072726;28;20040;-75
2023/03/13 00:03:01;;;;;;;26.08;5.45;;;;;;;;;;5057613;28;20064;-75
2023/03/13 00:05:27;;;;;;;28.63;5.93;;;;;;;;;;5033877;28;20037;-74
2023/03/13 00:07:53;;;;;;;22.08;5.80;;;;;;;;;;5033746;28;20057;-75
2023/03/13 00:10:19;;;;;;;21.55;5.50;;;;;;;;;;5052908;28;20052;-74
2023/03/13 00:12:45;;;;;;;30.40;6.18;;;;;;;;;;5051820;28;20138;-74
2023/03/13 00:15:11;;;;;;;30.60;5.95;;;;;;;;;;5034825;28;20446;-74
2023/03/13 00:17:37;;;;;;;27.13;6.15;;;;;;;;;;5052289;28;20041;-74
2023/03/13 00:20:04;;;;;;;28.05;6.72;;;;;;;;;;5061475;28;20512;-74
2023/03/13 00:22:30;;;;;;;24.13;5.72;;;;;;;;;;5051498;28;20048;-73
2023/03/13 00:24:56;;;;;;;30.38;6.85;;;;;;;;;;5067214;28;20386;-73
2023/03/13 00:27:22;;;;;;;29.00;5.72;;;;;;;;;;5051916;28;20116;-74
2023/03/13 00:29:49;;;;;;;27.83;5.65;;;;;;;;;;5065458;28;20568;-73
2023/03/13 00:32:15;;;;;;;27.60;6.55;;;;;;;;;;5050927;28;20481;-74
2023/03/13 00:34:41;;;;;;;31.30;6.32;;;;;;;;;;5052573;28;20048;-74
2023/03/13 00:37:07;;;;;;;31.45;5.97;;;;;;;;;;5063601;28;20066;-74
2023/03/13 00:39:33;;;;;;;30.77;6.53;;;;;;;;;;5049612;28;20502;-74
2023/03/13 00:42:02;;;;;;;28.92;6.25;;;;;;;;;;5053735;28;20124;-73
2023/03/13 00:44:28;;;;;;;30.88;6.57;;;;;;;;;;5047664;28;20382;-74
2023/03/13 00:46:54;;;;;;;27.80;6.40;;;;;;;;;;5065921;28;20045;-74
2023/03/13 00:49:20;;;;;;;31.45;6.78;;;;;;;;;;5065322;28;20445;-73
2023/03/13 00:51:46;;;;;;;28.73;6.57;;;;;;;;;;5072104;28;20045;-74
2023/03/13 00:54:12;;;;;;;26.30;6.05;;;;;;;;;;5071556;28;20393;-74
2023/03/13 00:56:38;;;;;;;28.83;7.20;;;;;;;;;;5072278;28;20041;-73
2023/03/13 00:59:04;;;;;;;29.92;6.45;;;;;;;;;;5071734;28;20068;-74
2023/03/13 01:01:35;;;;;;;29.42;6.75;;;;;;;;;;5072017;28;20033;-75
2023/03/13 01:04:03;;;;;;;29.08;6.97;;;;;;;;;;5051523;28;20052;-75
2023/03/13 01:06:30;;;;;;;32.58;6.38;;;;;;;;;;5051933;28;20064;-74
2023/03/13 01:08:57;;;;;;;32.78;6.75;;;;;;;;;;5051308;28;20390;-74
2023/03/13 01:11:24;;;;;;;26.15;6.30;;;;;;;;;;5052050;28;20045;-74
2023/03/13 01:13:53;;;;;;;35.83;6.88;;;;;;;;;;5050983;28;20094;-74
2023/03/13 01:16:20;;;;;;;29.23;7.00;;;;;;;;;;5051959;28;20375;-75
2023/03/13 01:18:50;;;;;;;34.13;7.22;;;;;;;;;;5035255;28;20049;-75
2023/03/13 01:21:18;;;;;;;27.40;6.10;;;;;;;;;;5060664;28;20098;-75
2023/03/13 01:23:44;;;;;;;33.70;7.60;;;;;;;;;;5058390;28;20120;-74
2023/03/13 01:26:11;;;;;;;35.53;7.22;;;;;;;;;;5059950;28;20131;-74
2023/03/13 01:28:37;;;;;;;28.08;6.72;;;;;;;;;;5075037;28;20045;-74
2023/03/13 01:31:17;;;;;;;27.33;6.43;;;;;;;;;;5061002;28;20160;-75
2023/03/13 01:33:43;;;;;;;29.10;7.60;;;;;;;;;;5072918;28;20052;-75
2023/03/13 01:36:09;;;;;;;36.53;6.97;;;;;;;;;;5070225;28;20041;-75
2023/03/13 01:38:36;;;;;;;27.65;6.38;;;;;;;;;;5059401;28;20048;-75
2023/03/13 01:41:02;;;;;;;28.27;6.53;;;;;;;;;;5055100;28;20071;-74
2023/03/13 01:43:29;;;;;;;37.05;7.13;;;;;;;;;;5054776;28;20047;-75
2023/03/13 01:46:16;;;;;;;31.40;7.28;;;;;;;;;;5047238;28;20103;-74
2023/03/13 01:48:57;;;;;;;31.63;7.57;;;;;;;;;;5054634;28;20088;-75
2023/03/13 01:51:23;;;;;;;32.90;6.95;;;;;;;;;;5036358;28;20136;-75
2023/03/13 01:53:52;;;;;;;31.05;6.70;;;;;;;;;;5034656;28;20132;-75
2023/03/13 01:56:22;;;;;;;29.73;6.22;;;;;;;;;;5052216;28;20522;-75
2023/03/13 01:58:50;;;;;;;28.27;6.65;;;;;;;;;;5033800;28;20358;-75
2023/03/13 02:01:17;;;;;;;29.27;6.55;;;;;;;;;;5035091;28;20055;-75
2023/03/13 02:03:43;;;;;;;34.65;6.90;;;;;;;;;;5064762;28;20052;-75
2023/03/13 02:06:10;;;;;;;29.25;6.93;;;;;;;;;;5074918;28;20105;-75
2023/03/13 02:08:37;;;;;;;35.78;6.70;;;;;;;;;;5074344;28;20428;-75
2023/03/13 02:11:14;;;;;;;34.25;6.75;;;;;;;;;;5074717;28;20049;-75
2023/03/13 02:13:40;;;;;;;27.70;6.10;;;;;;;;;;5056302;28;20121;-75
2023/03/13 02:16:07;;;;;;;33.55;6.80;;;;;;;;;;5056464;28;20045;-75
2023/03/13 02:18:33;;;;;;;27.73;6.80;;;;;;;;;;5074318;28;20401;-74
2023/03/13 02:21:07;;;;;;;32.75;7.20;;;;;;;;;;5028223;28;20045;-75
2023/03/13 02:23:39;;;;;;;33.15;6.72;;;;;;;;;;5069481;28;20075;-75
2023/03/13 02:26:05;;;;;;;40.75;7.47;;;;;;;;;;5066693;28;20456;-75
2023/03/13 02:28:33;;;;;;;31.27;7.07;;;;;;;;;;5060425;28;20048;-74
2023/03/13 02:30:59;;;;;;;31.08;7.60;;;;;;;;;;5073611;28;20040;-75
2023/03/13 02:33:27;;;;;;;34.10;7.65;;;;;;;;;;5072821;28;20078;-74
2023/03/13 02:35:53;;;;;;;32.05;7.22;;;;;;;;;;5057163;28;20049;-74
2023/03/13 02:38:23;;;;;;;28.33;7.47;;;;;;;;;;5058625;28;20493;-74
2023/03/13 02:40:50;;;;;;;36.00;7.78;;;;;;;;;;5069037;28;20375;-74
2023/03/13 02:43:32;;;;;;;29.23;7.82;;;;;;;;;;5055311;28;20455;-74
2023/03/13 02:46:07;;;;;;;27.92;7.28;;;;;;;;;;5069327;28;20048;-74
2023/03/13 02:48:38;;;;;;;29.58;7.85;;;;;;;;;;5052407;28;20056;-74
2023/03/13 02:51:07;;;;;;;33.78;7.45;;;;;;;;;;5066714;28;20041;-75
2023/03/13 02:53:34;;;;;;;27.67;7.88;;;;;;;;;;5054352;28;20382;-74
2023/03/13 02:56:00;;;;;;;27.00;7.13;;;;;;;;;;5058295;28;20423;-75
2023/03/13 02:58:26;;;;;;;24.13;6.40;;;;;;;;;;5073391;28;20373;-74
2023/03/13 03:00:52;;;;;;;21.42;7.00;;;;;;;;;;5071856;28;20128;-75
2023/03/13 03:03:18;;;;;;;18.83;6.43;;;;;;;;;;5072945;28;20047;-75
2023/03/13 03:05:44;;;;;;;21.27;6.30;;;;;;;;;;5055348;28;20102;-75
2023/03/13 03:08:10;;;;;;;19.35;7.07;;;;;;;;;;5060963;28;20048;-75
2023/03/13 03:10:36;;;;;;;22.67;6.85;;;;;;;;;;5068020;28;20063;-75
2023/03/13 03:13:03;;;;;;;18.38;6.72;;;;;;;;;;5053739;28;20083;-74
2023/03/13 03:15:29;;;;;;;16.48;5.90;;;;;;;;;;5051820;28;20052;-75
2023/03/13 03:17:55;;;;;;;18.35;6.18;;;;;;;;;;5053036;28;20040;-75
2023/03/13 03:20:21;;;;;;;16.55;5.97;;;;;;;;;;5054257;28;20040;-75
2023/03/13 03:22:47;;;;;;;15.63;5.90;;;;;;;;;;5056219;28;20044;-75
2023/03/13 03:25:13;;;;;;;15.00;6.15;;;;;;;;;;5064946;28;20048;-75
2023/03/13 03:27:39;;;;;;;16.35;6.18;;;;;;;;;;5056678;28;20041;-75
2023/03/13 03:30:06;;;;;;;11.82;5.53;;;;;;;;;;5057807;28;20503;-75
2023/03/13 03:32:32;;;;;;;13.15;5.95;;;;;;;;;;5071025;28;20079;-74
2023/03/13 03:34:58;;;;;;;13.57;5.95;;;;;;;;;;5072977;28;20052;-75
2023/03/13 03:37:24;;;;;;;12.48;5.55;;;;;;;;;;5058471;28;20040;-75
2023/03/13 03:39:50;;;;;;;15.02;6.60;;;;;;;;;;5072707;28;20447;-75
2023/03/13 03:42:16;;;;;;;11.13;5.82;;;;;;;;;;5045593;28;20483;-75
2023/03/13 03:44:42;;;;;;;12.73;5.88;;;;;;;;;;5026886;28;20135;-75
2023/03/13 03:47:08;;;;;;;12.70;6.22;;;;;;;;;;5041841;28;20044;-75
2023/03/13 03:49:34;;;;;;;12.27;6.18;;;;;;;;;;5051668;28;20045;-75
2023/03/13 03:52:00;;;;;;;16.65;6.65;;;;;;;;;;5058665;28;20043;-75
2023/03/13 03:54:26;;;;;;;10.57;5.68;;;;;;;;;;5072394;28;20045;-75
2023/03/13 03:56:52;;;;;;;13.85;6.35;;;;;;;;;;5072614;28;20429;-75
2023/03/13 03:59:19;;;;;;;15.52;7.10;;;;;;;;;;5072285;28;20056;-75
2023/03/13 04:01:45;;;;;;;13.88;6.47;;;;;;;;;;5071749;28;20404;-75
2023/03/13 04:04:11;;;;;;;12.75;6.30;;;;;;;;;;5066407;28;20449;-74
2023/03/13 04:06:37;;;;;;;12.13;6.00;;;;;;;;;;5052709;28;20041;-75
2023/03/13 04:09:03;;;;;;;11.50;6.00;;;;;;;;;;5052147;28;20068;-75
2023/03/13 04:11:29;;;;;;;10.07;5.85;;;;;;;;;;5052331;28;20044;-75
2023/03/13 04:13:55;;;;;;;12.63;5.40;;;;;;;;;;5051951;28;20059;-74
2023/03/13 04:16:21;;;;;;;9.70;5.32;;;;;;;;;;5034646;28;20124;-75
2023/03/13 04:18:47;;;;;;;10.60;5.63;;;;;;;;;;5055537;28;20040;-74
2023/03/13 04:21:13;;;;;;;9.30;5.18;;;;;;;;;;5053105;28;20051;-74
2023/03/13 04:23:39;;;;;;;9.13;4.88;;;;;;;;;;5052365;28;20382;-74
2023/03/13 04:26:05;;;;;;;10.25;5.78;;;;;;;;;;5052492;28;20041;-75
2023/03/13 04:28:32;;;;;;;10.85;5.93;;;;;;;;;;5067168;28;20036;-74
2023/03/13 04:30:58;;;;;;;10.05;6.43;;;;;;;;;;5052164;28;20048;-74
2023/03/13 04:33:24;;;;;;;13.30;6.75;;;;;;;;;;5055171;28;20123;-75
2023/03/13 04:35:50;;;;;;;11.65;7.07;;;;;;;;;;5067313;28;20051;-74
2023/03/13 04:38:16;;;;;;;14.13;8.25;;;;;;;;;;5036930;28;20045;-74
2023/03/13 04:40:42;;;;;;;13.73;8.50;;;;;;;;;;5053013;28;20132;-74
2023/03/13 04:43:08;;;;;;;15.43;9.40;;;;;;;;;;5070738;28;20044;-74
2023/03/13 04:45:34;;;;;;;16.65;9.40;;;;;;;;;;5064619;28;20139;-74
2023/03/13 04:48:00;;;;;;;17.17;9.77;;;;;;;;;;5041244;28;20144;-74
2023/03/13 04:50:26;;;;;;;20.63;11.55;;;;;;;;;;5070066;28;20124;-74
2023/03/13 04:52:52;;;;;;;17.10;10.85;;;;;;;;;;5061547;28;20037;-75
2023/03/13 04:55:18;;;;;;;16.75;10.20;;;;;;;;;;5055979;28;20053;-74
2023/03/13 04:57:44;;;;;;;20.25;11.48;;;;;;;;;;5069363;28;20045;-75
2023/03/13 05:00:11;;;;;;;19.63;11.45;;;;;;;;;;5056010;28;20053;-75
2023/03/13 05:02:37;;;;;;;19.55;11.43;;;;;;;;;;5075661;28;20090;-75
2023/03/13 05:05:03;;;;;;;23.83;12.13;;;;;;;;;;5075344;28;20053;-75
2023/03/13 05:07:29;;;;;;;20.00;10.88;;;;;;;;;;5052880;28;20041;-76
2023/03/13 05:09:55;;;;;;;19.13;11.10;;;;;;;;;;5054076;28;20057;-76
2023/03/13 05:12:21;;;;;;;16.67;10.73;;;;;;;;;;5056656;28;20068;-76
2023/03/13 05:14:49;;;;;;;22.48;10.35;;;;;;;;;;5063301;28;20076;-76
2023/03/13 05:17:16;;;;;;;19.50;11.10;;;;;;;;;;5070596;28;20405;-76
2023/03/13 05:19:42;;;;;;;24.55;11.02;;;;;;;;;;5049025;28;20493;-76
2023/03/13 05:22:08;;;;;;;26.27;11.35;;;;;;;;;;5059699;28;20045;-76
2023/03/13 05:24:34;;;;;;;20.83;11.52;;;;;;;;;;5053780;28;20044;-76
2023/03/13 05:27:01;;;;;;;18.90;10.90;;;;;;;;;;5055014;28;20041;-75
2023/03/13 05:29:27;;;;;;;25.10;10.80;;;;;;;;;;5054754;28;20374;-76
2023/03/13 05:31:53;;;;;;;17.85;9.43;;;;;;;;;;5054888;28;20045;-75
2023/03/13 05:34:19;;;;;;;19.58;9.15;;;;;;;;;;5060647;28;20052;-75
2023/03/13 05:36:45;;;;;;;13.25;8.13;;;;;;;;;;5062251;28;20044;-75
2023/03/13 05:39:11;;;;;;;16.05;7.80;;;;;;;;;;5053721;28;20044;-75
2023/03/13 05:41:37;;;;;;;15.95;7.72;;;;;;;;;;5056176;28;20042;-75
2023/03/13 05:44:03;;;;;;;15.15;7.30;;;;;;;;;;5065546;28;20080;-75
2023/03/13 05:46:29;;;;;;;15.73;6.72;;;;;;;;;;5070231;28;20045;-74
2023/03/13 05:48:55;;;;;;;20.40;7.93;;;;;;;;;;5059415;28;20129;-74
2023/03/13 05:51:22;;;;;;;14.95;6.68;;;;;;;;;;5035950;28;20044;-74
2023/03/13 05:53:48;;;;;;;21.48;7.35;;;;;;;;;;5036290;28;20051;-74
2023/03/13 05:56:14;;;;;;;14.73;7.65;;;;;;;;;;5036743;28;20041;-74
2023/03/13 05:58:40;;;;;;;15.75;6.95;;;;;;;;;;5036474;28;20080;-74
2023/03/13 06:01:07;;;;;;;15.85;7.00;;;;;;;;;;5050813;28;20045;-74
2023/03/13 06:03:33;;;;;;;21.27;7.22;;;;;;;;;;5073723;28;20472;-74
2023/03/13 06:05:59;;;;;;;15.43;6.75;;;;;;;;;;5074335;28;20358;-75
2023/03/13 06:08:26;;;;;;;18.15;7.20;;;;;;;;;;5074010;28;20512;-75
2023/03/13 06:10:52;;;;;;;21.05;6.97;;;;;;;;;;5074617;28;20500;-75
2023/03/13 06:13:18;;;;;;;17.88;6.82;;;;;;;;;;5039449;28;20382;-75
2023/03/13 06:15:50;;;;;;;15.55;6.78;;;;;;;;;;5056568;28;20044;-74
2023/03/13 06:18:16;;;;;;;17.65;6.80;;;;;;;;;;5073517;28;20052;-74
2023/03/13 06:20:42;;;;;;;17.98;6.97;;;;;;;;;;5070010;28;20041;-75
2023/03/13 06:23:08;;;;;;;21.63;7.28;;;;;;;;;;5058700;28;20052;-75
2023/03/13 06:25:34;;;;;;;25.08;7.45;;;;;;;;;;5068086;28;20048;-75
2023/03/13 06:28:00;;;;;;;23.77;7.25;;;;;;;;;;5061981;28;20369;-75
2023/03/13 06:30:26;;;;;;;17.50;7.45;;;;;;;;;;5051853;28;20128;-75
2023/03/13 06:32:52;;;;;;;17.98;6.88;;;;;;;;;;5052816;28;20143;-75
2023/03/13 06:35:18;;;;;;;19.17;7.55;;;;;;;;;;5036445;28;20045;-75
2023/03/13 06:37:44;;;;;;;16.65;7.30;;;;;;;;;;5053348;28;20327;-77
2023/03/13 06:40:11;;;;;;;20.60;7.80;;;;;;;;;;5053732;28;20056;-75
2023/03/13 06:42:37;;;;;;;21.38;8.00;;;;;;;;;;5035398;28;20053;-75
2023/03/13 06:45:04;;;;;;;20.60;7.85;;;;;;;;;;5054850;28;20346;-75
2023/03/13 06:47:31;;;;;;;19.08;8.30;;;;;;;;;;5072122;28;20106;-76
2023/03/13 06:49:57;;;;;;;15.88;7.80;;;;;;;;;;5073858;28;20396;-76
2023/03/13 06:52:23;;;;;;;18.48;7.68;;;;;;;;;;5073488;28;20506;-76
2023/03/13 06:54:49;;;;;;;22.00;8.35;;;;;;;;;;5073208;28;20133;-75
2023/03/13 06:57:15;;;;;;;22.42;8.77;;;;;;;;;;5071240;28;20040;-76
2023/03/13 06:59:41;;;;;;;27.90;8.05;;;;;;;;;;5073104;28;20051;-75
2023/03/13 07:02:09;;;;;;;19.33;7.45;;;;;;;;;;5072893;28;20075;-75
2023/03/13 07:04:35;;;;;;;23.15;7.50;;;;;;;;;;5047561;28;20048;-75
2023/03/13 07:07:01;;;;;;;20.90;7.30;;;;;;;;;;5068333;28;20461;-75
2023/03/13 07:09:27;;;;;;;17.90;6.50;;;;;;;;;;5062616;28;20057;-75
2023/03/13 07:11:53;;;;;;;18.27;7.13;;;;;;;;;;5073139;28;20040;-76
2023/03/13 07:14:19;;;;;;;19.75;6.75;;;;;;;;;;5072708;28;20044;-76
2023/03/13 07:16:46;;;;;;;17.77;6.72;;;;;;;;;;5070650;28;20372;-76
2023/03/13 07:19:12;;;;;;;19.58;6.10;;;;;;;;;;5072725;28;20509;-76
2023/03/13 07:21:38;;;;;;;18.70;6.20;;;;;;;;;;5062638;28;20124;-76
2023/03/13 07:24:04;;;;;;;12.98;5.75;;;;;;;;;;5056048;28;20044;-76
2023/03/13 07:26:30;;;;;;;14.32;5.60;;;;;;;;;;5062391;28;20123;-76
2023/03/13 07:28:56;;;;;;;17.25;5.38;;;;;;;;;;5051545;28;20091;-78
2023/03/13 07:31:23;;;;;;;19.58;6.07;;;;;;;;;;5053440;28;20060;-76
2023/03/13 07:33:55;;;;;;;16.85;5.78;;;;;;;;;;5054387;28;20417;-76
2023/03/13 07:36:21;;;;;;;17.50;5.65;;;;;;;;;;5037964;28;20048;-76
2023/03/13 07:38:51;;;;;;;13.18;5.72;;;;;;;;;;5070382;28;20438;-77
2023/03/13 07:41:17;;;;;;;14.13;5.38;;;;;;;;;;5054768;28;20633;-76
2023/03/13 07:43:44;;;;;;;13.45;5.40;;;;;;;;;;5026355;28;20055;-77
2023/03/13 07:46:11;;;;;;;13.88;4.97;;;;;;;;;;5052393;28;20497;-77
2023/03/13 07:48:38;;;;;;;15.98;5.65;;;;;;;;;;5031699;28;20053;-77
2023/03/13 07:51:05;;;;;;;14.80;5.80;;;;;;;;;;5053151;28;20375;-77
2023/03/13 07:53:31;;;;;;;15.95;5.63;;;;;;;;;;5051157;28;20053;-77
2023/03/13 07:56:02;;;;;;;14.73;5.07;;;;;;;;;;5060281;28;20044;-77
2023/03/13 07:58:29;;;;;;;12.20;5.20;;;;;;;;;;5035459;28;20052;-77
2023/03/13 08:00:56;;;;;;;18.02;5.20;;;;;;;;;;5057099;28;20037;-77
2023/03/13 08:03:23;;;;;;;12.48;4.85;;;;;;;;;;5071905;28;20040;-77
2023/03/13 08:06:02;;;;;;;12.98;5.18;;;;;;;;;;5068605;28;20393;-78
2023/03/13 08:08:28;;;;;;;12.35;4.95;;;;;;;;;;5033992;28;20098;-77
2023/03/13 08:10:58;;;;;;;13.15;4.47;;;;;;;;;;5058658;28;20076;-77
2023/03/13 08:13:24;;;;;;;11.13;4.53;;;;;;;;;;5077320;28;20074;-78
2023/03/13 08:15:50;;;;;;;12.05;4.57;;;;;;;;;;5092437;28;20043;-78
2023/03/13 08:18:16;;;;;;;10.80;4.10;;;;;;;;;;5091825;28;20101;-78
2023/03/13 08:20:42;;;;;;;7.97;3.47;;;;;;;;;;5092033;28;20586;-78
2023/03/13 08:23:08;;;;;;;8.68;3.72;;;;;;;;;;5069389;28;20141;-78
2023/03/13 08:25:34;;;;;;;9.50;3.78;;;;;;;;;;5092520;28;20083;-75
2023/03/13 08:28:00;;;;;;;11.48;3.78;;;;;;;;;;5091661;28;20072;-75
2023/03/13 08:30:26;;;;;;;10.18;3.40;;;;;;;;;;5092194;28;20396;-76
2023/03/13 08:32:52;;;;;;;9.77;2.90;;;;;;;;;;5073776;28;20109;-76
2023/03/13 08:35:18;;;;;;;10.55;3.63;;;;;;;;;;5057149;28;20052;-77
2023/03/13 08:37:44;;;;;;;6.25;2.90;;;;;;;;;;5061276;28;20497;-78
2023/03/13 08:40:11;;;;;;;9.48;2.97;;;;;;;;;;5053777;28;20377;-77
2023/03/13 08:42:39;;;;;;;7.72;2.72;;;;;;;;;;5070862;28;20048;-77
2023/03/13 08:45:05;;;;;;;9.27;3.03;;;;;;;;;;5057036;28;20444;-77
2023/03/13 08:47:32;;;;;;;8.23;2.70;;;;;;;;;;5053042;28;20489;-77
2023/03/13 08:49:58;;;;;;;9.88;2.60;;;;;;;;;;5070684;28;20036;-77
2023/03/13 08:52:24;;;;;;;10.05;2.35;;;;;;;;;;5071238;28;20157;-78
2023/03/13 08:54:50;;;;;;;6.97;2.20;;;;;;;;;;5060361;28;20071;-75
2023/03/13 08:57:16;;;;;;;7.85;2.30;;;;;;;;;;5068343;28;20112;-78
2023/03/13 08:59:45;;;;;;;8.30;2.65;;;;;;;;;;5051985;28;20458;-77
2023/03/13 09:02:11;;;;;;;7.00;2.25;;;;;;;;;;5052490;28;20494;-77
2023/03/13 09:04:37;;;;;;;4.65;1.80;;;;;;;;;;5053818;28;20497;-75
2023/03/13 09:07:03;;;;;;;5.70;2.00;;;;;;;;;;5068405;28;20075;-75
2023/03/13 09:09:29;;;;;;;7.70;2.10;;;;;;;;;;5071223;28;20382;-75
2023/03/13 09:11:55;;;;;;;7.15;1.80;;;;;;;;;;5063496;28;20037;-75
2023/03/13 09:14:21;;;;;;;5.28;2.05;;;;;;;;;;5063504;28;20396;-74
2023/03/13 09:16:48;;;;;;;6.72;2.10;;;;;;;;;;5051572;28;20080;-74
2023/03/13 09:19:14;;;;;;;5.32;1.83;;;;;;;;;;5063821;28;20127;-74
2023/03/13 09:21:40;;;;;;;8.05;2.28;;;;;;;;;;5071696;28;20106;-77
2023/03/13 09:24:07;;;;;;;8.85;2.30;;;;;;;;;;5053460;28;20500;-76
2023/03/13 09:26:33;;;;;;;6.22;2.15;;;;;;;;;;5070339;28;20056;-76
2023/03/13 09:28:59;;;;;;;6.05;2.25;;;;;;;;;;5053114;28;20049;-76
2023/03/13 09:31:29;;;;;;;8.20;3.17;;;;;;;;;;5071630;28;20401;-76
2023/03/13 09:33:55;;;;;;;9.50;2.72;;;;;;;;;;5069934;28;20149;-77
2023/03/13 09:36:25;;;;;;;12.48;2.78;;;;;;;;;;5068674;28;20059;-76
2023/03/13 09:38:52;;;;;;;10.45;2.67;;;;;;;;;;5052436;28;20074;-76
2023/03/13 09:41:36;;;;;;;8.18;2.65;;;;;;;;;;5053168;28;20041;-76
2023/03/13 09:44:02;;;;;;;10.30;3.08;;;;;;;;;;5068996;28;20044;-76
2023/03/13 09:46:34;;;;;;;11.95;3.03;;;;;;;;;;5055419;28;20120;-76
2023/03/13 09:49:03;;;;;;;9.52;2.70;;;;;;;;;;5070366;28;20429;-77
2023/03/13 09:51:38;;;;;;;10.75;2.80;;;;;;;;;;5070214;28;20498;-77
2023/03/13 09:54:21;;;;;;;13.05;3.05;;;;;;;;;;5061213;28;20050;-76
2023/03/13 09:56:52;;;;;;;14.50;3.42;;;;;;;;;;5057230;28;20044;-77
2023/03/13 09:59:19;;;;;;;16.58;3.30;;;;;;;;;;5074771;28;20083;-74
2023/03/13 10:01:47;;;;;;;14.05;3.10;;;;;;;;;;5074757;28;20048;-76
2023/03/13 10:04:19;;;;;;;12.02;3.28;;;;;;;;;;5056465;28;20056;-75
2023/03/13 10:06:47;;;;;;;10.05;2.90;;;;;;;;;;5052096;28;20103;-76
2023/03/13 10:09:16;;;;;;;12.35;2.90;;;;;;;;;;5054028;28;20064;-73
2023/03/13 10:12:05;;;;;;;10.52;2.70;;;;;;;;;;5054361;28;20497;-74
2023/03/13 10:14:48;;;;;;;12.82;3.22;;;;;;;;;;5069223;28;20046;-74
2023/03/13 10:17:17;;;;;;;12.25;3.88;;;;;;;;;;5069495;28;20036;-74
2023/03/13 10:19:44;;;;;;;15.57;3.22;;;;;;;;;;5074321;28;20063;-73
2023/03/13 10:22:22;;;;;;;12.35;3.00;;;;;;;;;;5056100;28;20055;-74
2023/03/13 10:24:56;;;;;;;11.35;3.22;;;;;;;;;;5072912;28;20448;-74
2023/03/13 10:27:22;;;;;;;13.30;3.08;;;;;;;;;;5071519;28;20458;-74
2023/03/13 10:29:48;;;;;;;12.43;3.13;;;;;;;;;;5056195;28;20045;-75
2023/03/13 10:32:15;;;;;;;12.45;3.28;;;;;;;;;;5051024;28;20045;-74
2023/03/13 10:34:50;;;;;;;14.20;3.40;;;;;;;;;;5056870;28;20049;-75
2023/03/13 10:37:19;;;;;;;10.80;2.97;;;;;;;;;;5064277;28;20045;-75
2023/03/13 10:39:45;;;;;;;12.55;3.10;;;;;;;;;;5057759;28;20045;-74
2023/03/13 10:42:18;;;;;;;12.38;3.40;;;;;;;;;;5070523;28;20048;-75
2023/03/13 10:44:44;;;;;;;14.50;3.72;;;;;;;;;;5069442;28;20451;-74
2023/03/13 10:47:12;;;;;;;13.90;3.53;;;;;;;;;;5036027;28;20044;-74
2023/03/13 10:49:46;;;;;;;14.48;3.45;;;;;;;;;;5035691;28;20041;-74
2023/03/13 10:52:26;;;;;;;14.30;3.60;;;;;;;;;;5053496;28;20059;-75
2023/03/13 10:54:56;;;;;;;17.52;3.40;;;;;;;;;;5053434;28;20421;-75
2023/03/13 10:57:25;;;;;;;14.35;3.30;;;;;;;;;;5061863;28;20032;-74
2023/03/13 10:59:52;;;;;;;15.63;3.42;;;;;;;;;;5071048;28;20408;-74
2023/03/13 11:02:35;;;;;;;15.60;3.85;;;;;;;;;;5058116;28;20488;-75
2023/03/13 11:05:02;;;;;;;14.25;3.50;;;;;;;;;;5067178;28;20044;-75
2023/03/13 11:07:31;;;;;;;16.48;3.47;;;;;;;;;;5071182;28;20040;-75
2023/03/13 11:09:59;;;;;;;15.80;4.03;;;;;;;;;;5073112;28;20037;-76
2023/03/13 11:12:26;;;;;;;17.23;3.88;;;;;;;;;;5055124;28;20085;-75
2023/03/13 11:14:59;;;;;;;16.38;3.53;;;;;;;;;;5073231;28;20052;-75
2023/03/13 11:17:31;;;;;;;12.85;3.50;;;;;;;;;;5054838;28;20044;-75
2023/03/13 11:20:05;;;;;;;15.00;3.30;;;;;;;;;;5070907;28;20473;-75
2023/03/13 11:22:43;;;;;;;11.93;3.40;;;;;;;;;;5054612;28;20460;-75
2023/03/13 11:25:17;;;;;;;9.88;3.22;;;;;;;;;;5073018;28;20075;-75
2023/03/13 11:27:54;;;;;;;16.73;3.10;;;;;;;;;;5067584;28;20048;-74
2023/03/13 11:30:23;;;;;;;13.25;3.13;;;;;;;;;;5062941;28;20049;-73
2023/03/13 11:32:52;;;;;;;12.98;2.83;;;;;;;;;;5064104;28;20063;-74
2023/03/13 11:35:29;;;;;;;9.48;3.00;;;;;;;;;;5064727;28;20052;-74
2023/03/13 11:37:56;;;;;;;11.90;2.88;;;;;;;;;;5052428;28;20293;-74
2023/03/13 11:40:35;;;;;;;11.75;3.00;;;;;;;;;;5044997;28;20198;-74
2023/03/13 11:43:16;;;;;;;8.60;2.58;;;;;;;;;;5042527;28;20083;-74
2023/03/13 11:45:48;;;;;;;14.27;2.72;;;;;;;;;;5029746;28;20056;-74
2023/03/13 11:48:32;;;;;;;12.35;2.97;;;;;;;;;;5054686;28;20052;-73
2023/03/13 11:51:11;;;;;;;11.77;2.72;;;;;;;;;;5044780;28;20895;-73
2023/03/13 11:53:37;;;;;;;12.73;3.33;;;;;;;;;;5043356;28;20059;-73
2023/03/13 11:56:22;;;;;;;9.73;2.80;;;;;;;;;;5045262;28;20080;-73
2023/03/13 11:58:54;;;;;;;10.27;2.88;;;;;;;;;;5042486;28;20045;-73
2023/03/13 12:01:22;;;;;;;13.90;2.85;;;;;;;;;;5044155;28;20404;-72
2023/03/13 12:04:07;;;;;;;13.15;2.85;;;;;;;;;;5044686;28;20091;-72
2023/03/13 12:06:56;;;;;;;10.98;3.15;;;;;;;;;;5043932;28;20045;-73
2023/03/13 12:09:28;;;;;;;13.65;2.97;;;;;;;;;;5020560;28;20126;-73
2023/03/13 12:12:03;;;;;;;13.32;3.08;;;;;;;;;;5045060;28;20041;-72
2023/03/13 12:14:44;;;;;;;15.93;3.15;;;;;;;;;;5041992;28;20063;-73
2023/03/13 12:17:17;;;;;;;11.07;2.80;;;;;;;;;;5051606;28;20056;-74
2023/03/13 12:20:06;;;;;;;12.45;3.30;;;;;;;;;;5064935;28;20485;-74
2023/03/13 12:22:37;;;;;;;12.27;3.45;;;;;;;;;;5052218;28;20053;-74
2023/03/13 12:25:16;;;;;;;11.63;3.13;;;;;;;;;;5034472;28;20136;-74
2023/03/13 12:27:45;;;;;;;16.40;3.47;;;;;;;;;;5067496;28;20519;-74
2023/03/13 12:30:27;;;;;;;14.75;3.10;;;;;;;;;;5052558;28;20122;-75
2023/03/13 12:33:13;;;;;;;13.73;3.30;;;;;;;;;;5055543;28;20076;-74
2023/03/13 12:35:39;;;;;;;;;;;;;;;;;;5054767;28;20041;-73
2023/03/13 12:38:11;;;;;;;13.30;3.50;;;;;;;;;;5059235;28;19994;-73
2023/03/13 12:41:00;;;;;;;13.55;3.25;;;;;;;;;;5052415;28;20069;-73
2023/03/13 12:43:31;;;;;;;13.95;3.58;;;;;;;;;;5051318;28;20049;-74
2023/03/13 12:45:57;;;;;;;13.35;3.63;;;;;;;;;;5071040;28;20048;-74
2023/03/13 12:48:48;;;;;;;12.88;3.45;;;;;;;;;;5071614;28;20094;-74
2023/03/13 12:51:32;;;;;;;13.52;3.55;;;;;;;;;;5070625;28;20048;-73
2023/03/13 12:54:10;;;;;;;18.05;3.88;;;;;;;;;;5071819;28;20151;-74
2023/03/13 12:56:36;;;;;;;18.13;3.60;;;;;;;;;;5071053;28;20054;-74
2023/03/13 12:59:05;;;;;;;16.98;3.65;;;;;;;;;;5070531;28;20080;-74
2023/03/13 13:01:52;;;;;;;19.17;4.00;;;;;;;;;;5072111;28;20457;-74
2023/03/13 13:04:23;;;;;;;17.35;3.97;;;;;;;;;;5070802;28;20059;-73
2023/03/13 13:07:01;;;;;;;17.45;3.78;;;;;;;;;;5071518;28;20485;-74
2023/03/13 13:09:28;;;;;;;17.13;4.03;;;;;;;;;;5050823;28;20059;-74
2023/03/13 13:11:56;;;;;;;16.98;4.28;;;;;;;;;;5070317;28;20044;-74
2023/03/13 13:14:22;;;;;;;17.88;3.97;;;;;;;;;;5054170;28;20048;-74
2023/03/13 13:16:55;;;;;;;13.93;3.60;;;;;;;;;;5075678;28;20119;-78
2023/03/13 13:19:24;;;;;;;21.88;4.20;;;;;;;;;;5073451;28;20118;-78
2023/03/13 13:22:09;;;;;;;20.40;5.43;;;;;;;;;;5057427;28;20513;-77
2023/03/13 13:24:40;;;;;;;17.92;3.80;;;;;;;;;;5067374;28;20060;-77
2023/03/13 13:27:29;;;;;;;16.85;4.07;;;;;;;;;;5054020;28;20045;-77
2023/03/13 13:29:56;;;;;;;21.80;4.68;;;;;;;;;;5027060;28;20102;-78
2023/03/13 13:32:29;;;;;;;18.77;3.85;;;;;;;;;;5037356;28;20389;-78
2023/03/13 13:35:00;;;;;;;20.80;4.53;;;;;;;;;;5055093;28;20049;-77
2023/03/13 13:37:27;;;;;;;23.73;4.32;;;;;;;;;;5066531;28;20087;-77
2023/03/13 13:39:54;;;;;;;17.90;3.97;;;;;;;;;;5036541;28;20061;-76
2023/03/13 13:42:29;;;;;;;21.35;4.68;;;;;;;;;;5054952;28;20045;-76
2023/03/13 13:44:55;;;;;;;;;;;;;;;;;;5037631;28;20045;-76
2023/03/13 13:47:21;;;;;;;;;;;;;;;;;;5055349;28;19928;-76
2023/03/13 13:49:53;;;;;;;17.27;4.10;;;;;;;;;;5036899;28;20372;-76
2023/03/13 13:52:29;;;;;;;29.17;5.25;;;;;;;;;;5054063;28;20045;-76
2023/03/13 13:54:56;;;;;;;19.02;4.03;;;;;;;;;;5036137;28;20048;-77
2023/03/13 13:57:24;;;;;;;20.50;4.40;;;;;;;;;;5054215;28;20405;-77
2023/03/13 13:59:51;;;;;;;18.55;4.25;;;;;;;;;;5054447;28;20064;-75
2023/03/13 14:02:17;;;;;;;27.65;4.28;;;;;;;;;;5054916;28;20392;-77
2023/03/13 14:04:49;;;;;;;21.20;4.88;;;;;;;;;;5054426;28;20579;-77
2023/03/13 14:07:16;;;;;;;23.67;4.60;;;;;;;;;;5069386;28;20044;-77
2023/03/13 14:09:45;;;;;;;20.98;4.53;;;;;;;;;;5070385;28;20052;-77
2023/03/13 14:12:30;;;;;;;16.77;4.15;;;;;;;;;;5061756;28;20070;-77
2023/03/13 14:15:06;;;;;;;24.08;5.60;;;;;;;;;;5074350;28;20071;-78
2023/03/13 14:17:43;;;;;;;21.15;4.75;;;;;;;;;;5049873;28;20053;-75
2023/03/13 14:20:29;;;;;;;18.38;4.72;;;;;;;;;;5053331;28;20049;-75
2023/03/13 14:22:57;;;;;;;21.35;4.32;;;;;;;;;;5043250;28;20128;-75
2023/03/13 14:25:24;;;;;;;23.33;4.93;;;;;;;;;;5052072;28;20111;-74
2023/03/13 14:27:51;;;;;;;18.90;4.35;;;;;;;;;;5052662;28;20044;-74
2023/03/13 14:30:18;;;;;;;18.15;3.65;;;;;;;;;;5052999;28;20037;-74
2023/03/13 14:32:44;;;;;;;19.85;4.55;;;;;;;;;;5051914;28;20487;-76
2023/03/13 14:35:13;;;;;;;19.35;3.72;;;;;;;;;;5019826;28;20053;-75
2023/03/13 14:37:46;;;;;;;18.08;4.10;;;;;;;;;;5035691;28;20049;-74
2023/03/13 14:40:15;;;;;;;21.20;4.72;;;;;;;;;;5054159;28;20420;-75